Time;durP1;ratioP1;P1;durP2;ratioP2;P2;SDS_P1;SDS_P2;PMS_P1;PMS_P2;Temp;Humidity;BMP_temperature;BMP_pressure;BME280_temperature;BME280_humidity;BME280_pressure;Samples;Min_cycle;Max_cycle;Signal;HPM_P1;HPM_P2
2024/03/24 00:01:11;;;;;;;0.57;0.30;;;17.00;72.90;;;;;;4988911;28;20042;-88
2024/03/24 00:03:37;;;;;;;0.20;0.20;;;17.00;73.20;;;;;;4970920;28;20191;-86
2024/03/24 00:06:03;;;;;;;0.70;0.50;;;17.00;73.90;;;;;;4989675;28;20078;-87
2024/03/24 00:08:30;;;;;;;0.30;0.30;;;16.90;73.10;;;;;;4990218;28;20096;-87
2024/03/24 00:10:57;;;;;;;0.30;0.30;;;16.90;73.00;;;;;;4990716;28;20042;-86
2024/03/24 00:13:23;;;;;;;0.20;0.20;;;16.90;73.10;;;;;;4972001;28;20046;-87
2024/03/24 00:15:48;;;;;;;0.25;0.25;;;16.90;73.00;;;;;;4990168;28;20057;-87
2024/03/24 00:18:14;;;;;;;0.30;0.30;;;16.90;73.20;;;;;;4989688;28;20043;-88
2024/03/24 00:20:39;;;;;;;1.08;0.30;;;16.90;73.10;;;;;;4971665;28;20504;-87
2024/03/24 00:23:07;;;;;;;0.50;0.50;;;16.90;73.20;;;;;;4971454;28;20042;-87
2024/03/24 00:25:33;;;;;;;0.30;0.30;;;16.90;73.00;;;;;;4989626;28;20520;-87
2024/03/24 00:27:58;;;;;;;1.35;0.40;;;16.90;73.10;;;;;;4990469;28;20166;-87
2024/03/24 00:30:24;;;;;;;0.43;0.40;;;16.90;73.10;;;;;;4990512;28;20050;-87
2024/03/24 00:32:51;;;;;;;0.30;0.30;;;16.90;73.10;;;;;;5004348;28;20539;-87
2024/03/24 00:35:17;;;;;;;0.30;0.30;;;16.90;73.20;;;;;;5004999;28;20663;-88
2024/03/24 00:37:42;;;;;;;0.45;0.30;;;16.80;73.00;;;;;;4971526;28;20050;-87
2024/03/24 00:40:09;;;;;;;0.28;0.28;;;16.90;73.10;;;;;;4988771;28;20041;-87
2024/03/24 00:42:35;;;;;;;0.47;0.30;;;16.80;73.10;;;;;;4954286;28;20042;-87
2024/03/24 00:45:01;;;;;;;0.70;0.47;;;16.80;72.90;;;;;;4989005;28;20504;-87
2024/03/24 00:47:26;;;;;;;0.30;0.30;;;16.80;73.70;;;;;;4988532;28;20023;-88
2024/03/24 00:49:52;;;;;;;0.60;0.43;;;16.80;72.90;;;;;;5003796;28;20038;-87
2024/03/24 00:52:17;;;;;;;0.30;0.30;;;16.80;73.00;;;;;;4987443;28;20026;-86
2024/03/24 00:54:43;;;;;;;0.40;0.40;;;16.80;73.70;;;;;;4986145;28;20631;-86
2024/03/24 00:57:08;;;;;;;0.43;0.40;;;16.80;73.00;;;;;;4988478;28;20030;-86
2024/03/24 00:59:34;;;;;;;0.25;0.25;;;16.80;73.00;;;;;;4954540;28;20030;-88
2024/03/24 01:01:59;;;;;;;0.30;0.30;;;16.80;72.90;;;;;;4987064;28;20041;-87
2024/03/24 01:04:25;;;;;;;0.50;0.40;;;16.80;73.10;;;;;;4987509;28;20113;-88
2024/03/24 01:06:51;;;;;;;0.20;0.20;;;16.80;72.80;;;;;;4989097;28;20042;-75
2024/03/24 01:09:16;;;;;;;0.50;0.30;;;16.80;72.80;;;;;;4981396;28;20047;-75
2024/03/24 01:11:42;;;;;;;0.32;0.32;;;16.80;72.80;;;;;;4987644;28;20404;-75
2024/03/24 01:14:07;;;;;;;0.30;0.20;;;16.80;72.90;;;;;;4987510;28;20034;-75
2024/03/24 01:16:33;;;;;;;0.43;0.32;;;16.80;73.00;;;;;;4988421;28;20149;-76
2024/03/24 01:18:59;;;;;;;0.50;0.30;;;16.80;73.00;;;;;;4985414;28;20045;-75
2024/03/24 01:21:24;;;;;;;0.35;0.35;;;16.80;73.10;;;;;;4990210;28;20392;-75
2024/03/24 01:23:50;;;;;;;0.40;0.40;;;16.80;72.90;;;;;;4970156;28;20077;-75
2024/03/24 01:26:16;;;;;;;0.38;0.38;;;16.70;72.90;;;;;;4987906;28;20089;-75
2024/03/24 01:28:41;;;;;;;0.38;0.28;;;16.70;72.90;;;;;;4986254;28;20054;-75
2024/03/24 01:31:07;;;;;;;0.60;0.30;;;16.70;72.80;;;;;;4985609;28;20046;-75
2024/03/24 01:33:33;;;;;;;0.30;0.30;;;16.80;73.70;;;;;;4987017;28;20049;-75
2024/03/24 01:35:58;;;;;;;0.30;0.22;;;16.70;72.80;;;;;;4988363;28;20046;-74
2024/03/24 01:38:24;;;;;;;0.30;0.20;;;16.80;72.80;;;;;;4986537;28;20440;-74
2024/03/24 01:40:49;;;;;;;0.30;0.30;;;16.70;72.80;;;;;;4952733;28;20173;-75
2024/03/24 01:43:15;;;;;;;0.40;0.40;;;16.70;72.80;;;;;;4972011;28;20046;-75
2024/03/24 01:45:41;;;;;;;0.30;0.30;;;16.70;72.80;;;;;;4967970;28;20544;-75
2024/03/24 01:48:07;;;;;;;0.20;0.20;;;16.70;72.80;;;;;;4985361;28;20571;-74
2024/03/24 01:50:32;;;;;;;0.28;0.28;;;16.70;72.70;;;;;;4967071;28;20043;-75
2024/03/24 01:52:58;;;;;;;0.40;0.30;;;16.70;72.80;;;;;;4969808;28;20169;-75
2024/03/24 01:55:23;;;;;;;0.40;0.40;;;16.70;72.60;;;;;;5003113;28;20050;-75
2024/03/24 01:57:49;;;;;;;0.30;0.30;;;16.70;72.80;;;;;;4963817;28;20046;-75
2024/03/24 02:00:16;;;;;;;0.30;0.20;;;16.70;72.70;;;;;;4971278;28;20519;-75
2024/03/24 02:02:41;;;;;;;0.35;0.22;;;16.70;72.70;;;;;;4984809;28;20511;-75
2024/03/24 02:05:07;;;;;;;0.30;0.28;;;16.70;73.40;;;;;;4953789;28;20073;-75
2024/03/24 02:07:33;;;;;;;0.30;0.30;;;16.70;72.60;;;;;;4969265;28;20030;-76
2024/03/24 02:09:59;;;;;;;0.30;0.30;;;16.70;72.70;;;;;;4968387;28;20176;-75
2024/03/24 02:12:24;;;;;;;0.50;0.40;;;16.70;72.70;;;;;;4985401;28;20156;-75
2024/03/24 02:14:50;;;;;;;0.68;0.40;;;16.70;73.50;;;;;;4984972;28;20039;-75
2024/03/24 02:17:16;;;;;;;0.30;0.30;;;16.70;72.70;;;;;;4967364;28;20047;-75
2024/03/24 02:19:41;;;;;;;0.20;0.20;;;16.70;72.80;;;;;;4985873;28;20456;-75
2024/03/24 02:22:07;;;;;;;0.25;0.20;;;16.70;72.60;;;;;;4988057;28;20042;-75
2024/03/24 02:24:32;;;;;;;0.25;0.25;;;16.70;72.70;;;;;;4970832;28;20133;-74
2024/03/24 02:26:58;;;;;;;0.35;0.35;;;16.70;72.50;;;;;;4966926;28;20050;-74
2024/03/24 02:29:23;;;;;;;0.55;0.40;;;16.70;72.60;;;;;;4998269;28;20073;-75
2024/03/24 02:31:49;;;;;;;0.40;0.40;;;16.70;72.50;;;;;;4953060;28;20428;-75
2024/03/24 02:34:15;;;;;;;1.08;0.40;;;16.70;72.60;;;;;;4953692;28;20045;-75
2024/03/24 02:36:40;;;;;;;0.30;0.30;;;16.60;72.30;;;;;;4968853;28;20105;-75
2024/03/24 02:39:06;;;;;;;0.28;0.20;;;16.60;72.40;;;;;;4981253;28;20381;-75
2024/03/24 02:41:34;;;;;;;0.40;0.20;;;16.60;72.40;;;;;;4990223;28;20128;-75
2024/03/24 02:44:00;;;;;;;0.88;0.30;;;16.60;72.50;;;;;;4984927;28;20129;-75
2024/03/24 02:46:25;;;;;;;0.60;0.45;;;16.60;72.60;;;;;;4952963;28;20180;-75
2024/03/24 02:48:51;;;;;;;0.77;0.30;;;16.70;72.50;;;;;;4984080;28;20042;-75
2024/03/24 02:51:17;;;;;;;0.30;0.20;;;16.70;72.50;;;;;;4985823;28;20038;-75
2024/03/24 02:53:42;;;;;;;0.65;0.30;;;16.60;72.50;;;;;;4968095;28;20046;-75
2024/03/24 02:56:11;;;;;;;0.20;0.20;;;16.60;72.30;;;;;;4984321;28;20045;-75
2024/03/24 02:58:36;;;;;;;0.13;0.13;;;16.60;72.50;;;;;;4967150;28;20046;-75
2024/03/24 03:01:02;;;;;;;0.52;0.50;;;16.60;72.50;;;;;;4951154;28;20038;-75
2024/03/24 03:03:27;;;;;;;0.50;0.30;;;16.60;72.40;;;;;;4969181;28;20400;-74
2024/03/24 03:05:53;;;;;;;0.45;0.45;;;16.60;72.40;;;;;;5001407;28;20570;-75
2024/03/24 03:08:18;;;;;;;2.75;0.65;;;16.60;72.30;;;;;;4953621;28;20038;-75
2024/03/24 03:10:44;;;;;;;0.43;0.40;;;16.60;72.40;;;;;;4965914;28;20041;-75
2024/03/24 03:13:10;;;;;;;0.50;0.50;;;16.60;72.50;;;;;;4984590;28;20097;-74
2024/03/24 03:15:35;;;;;;;0.30;0.30;;;16.60;72.40;;;;;;4986524;28;20042;-74
2024/03/24 03:18:01;;;;;;;0.40;0.30;;;16.60;72.20;;;;;;4949477;28;20518;-74
2024/03/24 03:20:27;;;;;;;0.30;0.30;;;16.60;72.30;;;;;;4986997;28;20453;-74
2024/03/24 03:22:53;;;;;;;0.55;0.40;;;16.60;72.40;;;;;;4967486;28;20045;-74
2024/03/24 03:25:18;;;;;;;0.47;0.30;;;16.60;72.30;;;;;;5001116;28;20046;-74
2024/03/24 03:27:44;;;;;;;0.30;0.30;;;16.60;72.40;;;;;;4968091;28;20492;-75
2024/03/24 03:30:10;;;;;;;0.30;0.30;;;16.60;72.50;;;;;;5002885;28;20404;-74
2024/03/24 03:32:36;;;;;;;0.60;0.30;;;16.60;72.30;;;;;;4967618;28;20468;-74
2024/03/24 03:35:01;;;;;;;0.30;0.20;;;16.60;72.40;;;;;;4967589;28;20057;-74
2024/03/24 03:37:27;;;;;;;0.22;0.22;;;16.60;72.30;;;;;;4952596;28;20045;-75
2024/03/24 03:39:53;;;;;;;0.30;0.30;;;16.60;72.30;;;;;;5001953;28;20046;-75
2024/03/24 03:42:19;;;;;;;0.30;0.30;;;16.60;72.30;;;;;;5002363;28;20109;-74
2024/03/24 03:44:46;;;;;;;0.22;0.22;;;16.60;72.30;;;;;;4963612;28;20045;-74
2024/03/24 03:47:14;;;;;;;0.63;0.30;;;16.60;72.40;;;;;;4984431;28;20047;-74
2024/03/24 03:49:40;;;;;;;0.75;0.35;;;16.60;72.30;;;;;;4982980;28;20042;-74
2024/03/24 03:52:06;;;;;;;0.38;0.20;;;16.60;72.30;;;;;;4969152;28;20085;-75
2024/03/24 03:54:31;;;;;;;0.20;0.20;;;16.60;72.40;;;;;;4983338;28;20117;-75
2024/03/24 03:56:57;;;;;;;0.43;0.30;;;16.50;72.30;;;;;;4968029;28;20152;-75
2024/03/24 03:59:22;;;;;;;0.20;0.20;;;16.50;72.30;;;;;;4985893;28;20424;-74
2024/03/24 04:01:48;;;;;;;0.22;0.20;;;16.50;72.20;;;;;;4984589;28;20049;-75
2024/03/24 04:04:14;;;;;;;0.40;0.20;;;16.50;72.20;;;;;;4968275;28;20495;-75
2024/03/24 04:06:39;;;;;;;0.60;0.38;;;16.50;72.30;;;;;;4968987;28;20400;-75
2024/03/24 04:09:05;;;;;;;0.22;0.20;;;16.50;72.20;;;;;;4950166;28;20067;-75
2024/03/24 04:11:30;;;;;;;0.32;0.22;;;16.50;72.30;;;;;;4985112;28;20042;-75
2024/03/24 04:13:56;;;;;;;0.30;0.30;;;16.50;72.20;;;;;;4967273;28;20100;-74
2024/03/24 04:16:22;;;;;;;0.25;0.22;;;16.50;72.20;;;;;;4998018;28;20074;-74
2024/03/24 04:18:48;;;;;;;0.32;0.20;;;16.50;72.20;;;;;;4985181;28;20050;-74
2024/03/24 04:21:13;;;;;;;0.40;0.30;;;16.50;72.10;;;;;;4987258;28;20093;-74
2024/03/24 04:23:39;;;;;;;0.45;0.20;;;16.50;72.20;;;;;;4983223;28;20105;-77
2024/03/24 04:26:05;;;;;;;0.10;0.10;;;16.50;72.20;;;;;;4983269;28;20100;-74
2024/03/24 04:28:30;;;;;;;0.40;0.20;;;16.50;72.20;;;;;;4968560;28;20046;-74
2024/03/24 04:30:56;;;;;;;0.20;0.20;;;16.50;72.20;;;;;;4980545;28;21502;-75
2024/03/24 04:33:22;;;;;;;0.30;0.20;;;16.50;72.10;;;;;;4984232;28;20099;-74
2024/03/24 04:35:48;;;;;;;0.60;0.20;;;16.50;72.20;;;;;;4967004;28;20054;-74
2024/03/24 04:38:13;;;;;;;0.25;0.25;;;16.50;72.20;;;;;;4967944;28;20515;-74
2024/03/24 04:40:39;;;;;;;0.57;0.30;;;16.50;72.20;;;;;;4971591;28;20046;-74
2024/03/24 04:43:07;;;;;;;0.20;0.20;;;16.50;72.10;;;;;;4978664;28;20092;-75
2024/03/24 04:45:33;;;;;;;0.35;0.30;;;16.50;72.10;;;;;;5004860;28;20090;-74
2024/03/24 04:47:58;;;;;;;0.20;0.20;;;16.50;72.10;;;;;;4989028;28;20050;-74
2024/03/24 04:50:24;;;;;;;0.30;0.30;;;16.50;72.20;;;;;;4969845;28;20042;-74
2024/03/24 04:52:50;;;;;;;0.47;0.30;;;16.50;72.10;;;;;;4966556;28;20049;-75
2024/03/24 04:55:16;;;;;;;0.38;0.30;;;16.50;72.30;;;;;;5004205;28;20034;-74
2024/03/24 04:57:41;;;;;;;0.30;0.17;;;16.50;72.10;;;;;;4984766;28;20053;-76
2024/03/24 05:00:07;;;;;;;0.50;0.43;;;16.50;72.10;;;;;;4988919;28;20587;-74
2024/03/24 05:02:36;;;;;;;0.73;0.30;;;16.50;73.00;;;;;;4987522;28;20049;-74
2024/03/24 05:05:02;;;;;;;0.50;0.30;;;16.50;72.10;;;;;;4972255;28;20050;-75
2024/03/24 05:07:29;;;;;;;0.30;0.20;;;16.50;72.80;;;;;;4969709;28;20042;-74
2024/03/24 05:09:55;;;;;;;0.20;0.20;;;16.50;72.30;;;;;;4985494;28;20065;-74
2024/03/24 05:12:20;;;;;;;0.30;0.20;;;16.50;72.10;;;;;;4971425;28;20074;-74
2024/03/24 05:14:46;;;;;;;0.30;0.20;;;16.50;72.00;;;;;;4969338;28;20149;-75
2024/03/24 05:17:13;;;;;;;0.30;0.28;;;16.50;71.90;;;;;;5004253;28;20435;-75
2024/03/24 05:19:38;;;;;;;0.10;0.10;;;16.50;72.00;;;;;;4954692;28;20456;-74
2024/03/24 05:22:04;;;;;;;0.70;0.20;;;16.40;71.90;;;;;;4953003;28;20319;-74
2024/03/24 05:24:30;;;;;;;0.20;0.10;;;16.40;71.90;;;;;;4987986;28;20038;-75
2024/03/24 05:26:55;;;;;;;0.20;0.20;;;16.40;71.90;;;;;;4982409;28;20464;-75
2024/03/24 05:29:21;;;;;;;0.20;0.20;;;16.40;71.90;;;;;;4986609;28;20034;-74
2024/03/24 05:31:52;;;;;;;0.30;0.20;;;16.40;71.90;;;;;;4983743;28;20118;-75
2024/03/24 05:34:17;;;;;;;0.22;0.20;;;16.40;71.90;;;;;;4986259;28;20042;-74
2024/03/24 05:36:43;;;;;;;0.60;0.30;;;16.40;71.90;;;;;;4969424;28;20046;-74
2024/03/24 05:39:08;;;;;;;0.22;0.20;;;16.40;72.00;;;;;;4986295;28;20046;-74
2024/03/24 05:41:34;;;;;;;0.10;0.10;;;16.40;71.70;;;;;;4970397;28;20516;-74
2024/03/24 05:44:00;;;;;;;0.30;0.30;;;16.40;72.20;;;;;;4968528;28;20050;-74
2024/03/24 05:46:25;;;;;;;0.32;0.20;;;16.40;71.90;;;;;;4986293;28;20141;-75
2024/03/24 05:48:51;;;;;;;0.10;0.03;;;16.40;72.10;;;;;;4968525;28;20459;-75
2024/03/24 05:51:16;;;;;;;0.50;0.30;;;16.40;71.90;;;;;;4985574;28;20046;-74
2024/03/24 05:53:42;;;;;;;0.40;0.20;;;16.40;71.70;;;;;;4970450;28;20041;-74
2024/03/24 05:56:08;;;;;;;0.40;0.20;;;16.40;71.50;;;;;;4966978;28;20109;-74
2024/03/24 05:58:33;;;;;;;0.30;0.30;;;16.40;71.80;;;;;;4953719;28;20114;-74
2024/03/24 06:01:02;;;;;;;1.10;0.40;;;16.40;71.60;;;;;;4966378;28;20527;-74
2024/03/24 06:03:28;;;;;;;0.70;0.28;;;16.40;71.60;;;;;;4951582;28;20452;-74
2024/03/24 06:05:53;;;;;;;0.25;0.13;;;16.40;71.50;;;;;;4968321;28;20049;-75
2024/03/24 06:08:19;;;;;;;0.40;0.30;;;16.40;72.00;;;;;;4981987;28;20042;-74
2024/03/24 06:10:45;;;;;;;0.30;0.25;;;16.40;71.90;;;;;;4968552;28;20800;-74
2024/03/24 06:13:10;;;;;;;0.47;0.20;;;16.40;71.90;;;;;;4968344;28;20074;-74
2024/03/24 06:15:36;;;;;;;0.10;0.10;;;16.40;71.60;;;;;;4966154;28;20050;-74
2024/03/24 06:18:06;;;;;;;0.20;0.20;;;16.40;71.80;;;;;;4985315;28;20053;-74
2024/03/24 06:20:33;;;;;;;0.17;0.17;;;16.40;71.50;;;;;;4971257;28;20049;-74
2024/03/24 06:23:00;;;;;;;0.38;0.20;;;16.40;71.70;;;;;;4969710;28;20042;-74
2024/03/24 06:25:25;;;;;;;0.22;0.22;;;16.40;71.90;;;;;;4969340;28;20265;-75
2024/03/24 06:27:51;;;;;;;0.10;0.10;;;16.40;71.50;;;;;;4984615;28;20053;-75
2024/03/24 06:30:17;;;;;;;0.30;0.20;;;16.40;71.50;;;;;;4970484;28;20042;-75
2024/03/24 06:32:42;;;;;;;0.98;0.20;;;16.40;71.50;;;;;;4968515;28;20074;-74
2024/03/24 06:35:11;;;;;;;0.30;0.20;;;16.40;71.80;;;;;;4950909;28;20411;-75
2024/03/24 06:37:38;;;;;;;0.65;0.22;;;16.40;71.80;;;;;;4970947;28;20195;-74
2024/03/24 06:40:07;;;;;;;0.30;0.20;;;16.40;71.50;;;;;;4983281;28;20070;-74
2024/03/24 06:42:35;;;;;;;0.25;0.15;;;16.40;71.50;;;;;;4970117;28;20038;-74
2024/03/24 06:45:08;;;;;;;0.30;0.13;;;16.40;71.50;;;;;;4966728;28;20624;-74
2024/03/24 06:47:34;;;;;;;0.25;0.20;;;16.40;71.70;;;;;;4985652;28;20042;-74
2024/03/24 06:49:59;;;;;;;0.15;0.10;;;16.40;71.50;;;;;;4986070;28;20026;-74
2024/03/24 06:52:26;;;;;;;0.20;0.20;;;16.40;71.50;;;;;;4968241;28;20045;-74
2024/03/24 06:54:51;;;;;;;0.52;0.22;;;16.30;71.50;;;;;;5002207;28;20089;-75
2024/03/24 06:57:17;;;;;;;0.35;0.20;;;16.40;71.50;;;;;;4969615;28;20031;-76
2024/03/24 06:59:42;;;;;;;0.20;0.10;;;16.40;71.50;;;;;;4967947;28;20035;-74
2024/03/24 07:02:08;;;;;;;0.70;0.30;;;16.40;71.60;;;;;;4985277;28;20065;-74
2024/03/24 07:04:36;;;;;;;0.35;0.32;;;16.40;71.50;;;;;;4968330;28;20031;-74
2024/03/24 07:07:02;;;;;;;0.17;0.13;;;16.40;71.50;;;;;;4982617;28;20054;-74
2024/03/24 07:09:27;;;;;;;0.35;0.20;;;16.40;71.50;;;;;;4985311;28;20061;-74
2024/03/24 07:11:53;;;;;;;0.28;0.28;;;16.30;71.50;;;;;;4966861;28;20038;-75
2024/03/24 07:14:18;;;;;;;0.38;0.20;;;16.40;72.30;;;;;;4969031;28;20424;-75
2024/03/24 07:16:44;;;;;;;0.20;0.10;;;16.40;71.60;;;;;;4966387;28;20177;-74
2024/03/24 07:19:10;;;;;;;0.20;0.20;;;16.40;71.50;;;;;;4965782;28;20047;-74
2024/03/24 07:21:35;;;;;;;0.22;0.20;;;16.40;71.40;;;;;;4966560;28;20504;-74
2024/03/24 07:24:01;;;;;;;0.20;0.17;;;16.30;71.20;;;;;;4967173;28;20062;-74
2024/03/24 07:26:26;;;;;;;0.20;0.20;;;16.40;71.50;;;;;;4981518;28;20053;-74
2024/03/24 07:28:52;;;;;;;0.30;0.22;;;16.40;71.10;;;;;;5001288;28;20058;-75
2024/03/24 07:31:18;;;;;;;0.10;0.10;;;16.40;71.10;;;;;;4985122;28;20415;-75
2024/03/24 07:33:47;;;;;;;0.20;0.20;;;16.40;71.10;;;;;;4984460;28;20054;-75
2024/03/24 07:36:13;;;;;;;0.50;0.30;;;16.40;71.50;;;;;;4983126;28;20042;-75
2024/03/24 07:38:39;;;;;;;0.30;0.20;;;16.40;71.20;;;;;;4968636;28;20514;-77
2024/03/24 07:41:04;;;;;;;0.30;0.22;;;16.50;71.20;;;;;;4981596;28;20046;-74
2024/03/24 07:43:30;;;;;;;0.45;0.20;;;16.50;71.20;;;;;;4968347;28;20073;-73
2024/03/24 07:45:56;;;;;;;0.47;0.20;;;16.50;71.40;;;;;;4983823;28;20514;-75
2024/03/24 07:48:21;;;;;;;1.20;0.10;;;16.50;71.60;;;;;;5001148;28;20045;-73
2024/03/24 07:50:47;;;;;;;0.30;0.20;;;16.50;72.40;;;;;;4985070;28;20038;-74
2024/03/24 07:53:13;;;;;;;0.82;0.35;;;16.50;71.60;;;;;;4965789;28;20096;-73
2024/03/24 07:55:41;;;;;;;3.60;0.30;;;16.50;71.60;;;;;;4982588;28;20527;-74
2024/03/24 07:58:07;;;;;;;0.47;0.20;;;16.50;71.60;;;;;;4994272;28;20046;-74
2024/03/24 08:00:33;;;;;;;0.40;0.30;;;16.50;71.40;;;;;;4981831;28;20038;-74
2024/03/24 08:02:59;;;;;;;2.15;0.65;;;16.50;71.50;;;;;;4981882;28;20097;-74
2024/03/24 08:05:25;;;;;;;0.40;0.30;;;16.50;71.50;;;;;;4981081;28;20130;-73
2024/03/24 08:07:50;;;;;;;2.58;0.30;;;16.50;71.60;;;;;;4632795;28;10000482;-73
2024/03/24 08:10:16;;;;;;;0.60;0.22;;;16.50;71.80;;;;;;4986478;28;20531;-74
2024/03/24 08:12:42;;;;;;;3.13;0.20;;;16.50;72.60;;;;;;4986378;28;20037;-73
2024/03/24 08:15:07;;;;;;;0.10;0.10;;;16.50;71.70;;;;;;5004890;28;20034;-74
2024/03/24 08:17:33;;;;;;;0.35;0.22;;;16.50;71.40;;;;;;4990322;28;20041;-74
2024/03/24 08:19:58;;;;;;;1.85;0.50;;;16.60;71.40;;;;;;4982204;28;20124;-74
2024/03/24 08:22:24;;;;;;;0.30;0.30;;;16.60;71.30;;;;;;5006974;28;21814;-73
2024/03/24 08:24:50;;;;;;;1.60;0.40;;;16.60;71.30;;;;;;4991165;28;20077;-73
2024/03/24 08:27:15;;;;;;;0.15;0.15;;;16.60;71.20;;;;;;5008063;28;20057;-74
2024/03/24 08:29:41;;;;;;;1.73;0.30;;;16.60;71.50;;;;;;4990019;28;20594;-74
2024/03/24 08:32:07;;;;;;;0.40;0.20;;;16.60;71.70;;;;;;5006456;28;20495;-74
2024/03/24 08:34:32;;;;;;;0.50;0.20;;;16.60;71.50;;;;;;5006072;28;20037;-73
2024/03/24 08:36:58;;;;;;;0.25;0.20;;;16.60;71.10;;;;;;4973682;28;20037;-74
2024/03/24 08:39:23;;;;;;;0.20;0.20;;;16.60;71.20;;;;;;4991901;28;20145;-74
2024/03/24 08:41:49;;;;;;;0.20;0.20;;;16.60;70.90;;;;;;4994001;28;20033;-74
2024/03/24 08:44:14;;;;;;;0.55;0.20;;;16.70;71.00;;;;;;5003221;28;20058;-75
2024/03/24 08:46:40;;;;;;;0.20;0.20;;;16.70;71.00;;;;;;4994513;28;20049;-74
2024/03/24 08:49:06;;;;;;;0.45;0.20;;;16.70;70.80;;;;;;5003655;28;20120;-75
2024/03/24 08:51:32;;;;;;;0.30;0.30;;;16.70;71.10;;;;;;5037962;28;20102;-74
2024/03/24 08:53:57;;;;;;;0.30;0.30;;;16.80;70.30;;;;;;5002404;28;20514;-75
2024/03/24 08:56:23;;;;;;;0.20;0.20;;;16.80;70.50;;;;;;4988911;28;20042;-75
2024/03/24 08:58:48;;;;;;;0.73;0.30;;;16.80;70.70;;;;;;5016172;28;20061;-74
2024/03/24 09:01:14;;;;;;;0.25;0.20;;;16.80;70.70;;;;;;5016415;28;20578;-75
2024/03/24 09:03:39;;;;;;;0.98;0.20;;;16.80;70.80;;;;;;5013057;28;20065;-74
2024/03/24 09:06:06;;;;;;;0.73;0.35;;;16.80;70.50;;;;;;5014827;28;20034;-74
2024/03/24 09:08:32;;;;;;;0.20;0.20;;;16.80;70.20;;;;;;5017064;28;20049;-74
2024/03/24 09:10:58;;;;;;;0.35;0.17;;;16.80;70.60;;;;;;5027512;28;20072;-75
2024/03/24 09:13:23;;;;;;;0.20;0.10;;;16.90;70.40;;;;;;4987399;28;20085;-74
2024/03/24 09:15:49;;;;;;;0.60;0.20;;;16.90;70.40;;;;;;5026310;28;20069;-74
2024/03/24 09:18:14;;;;;;;0.30;0.30;;;17.00;70.10;;;;;;5012122;28;20056;-74
2024/03/24 09:20:40;;;;;;;0.55;0.30;;;17.00;70.20;;;;;;4995076;28;20407;-74
2024/03/24 09:23:05;;;;;;;0.50;0.30;;;17.00;69.90;;;;;;5025394;28;20073;-74
2024/03/24 09:25:31;;;;;;;0.75;0.30;;;17.10;70.10;;;;;;4992635;28;20045;-74
2024/03/24 09:27:57;;;;;;;0.43;0.30;;;17.10;69.40;;;;;;5018540;28;20078;-76
2024/03/24 09:30:23;;;;;;;0.30;0.30;;;17.00;69.70;;;;;;5030818;28;20069;-74
2024/03/24 09:32:49;;;;;;;0.40;0.28;;;17.10;69.70;;;;;;5017375;28;20110;-74
2024/03/24 09:35:14;;;;;;;0.22;0.22;;;17.10;70.00;;;;;;5015742;28;20025;-74
2024/03/24 09:37:40;;;;;;;0.70;0.40;;;17.10;69.70;;;;;;5028931;28;20486;-74
2024/03/24 09:40:06;;;;;;;0.20;0.20;;;17.10;69.80;;;;;;5014390;28;20121;-75
2024/03/24 09:42:32;;;;;;;0.30;0.22;;;17.20;69.60;;;;;;5014783;28;20120;-74
2024/03/24 09:44:59;;;;;;;0.40;0.20;;;17.20;69.70;;;;;;5035227;28;20503;-74
2024/03/24 09:47:26;;;;;;;1.75;0.30;;;17.20;69.00;;;;;;5032504;28;20045;-74
2024/03/24 09:49:51;;;;;;;0.30;0.25;;;17.30;69.00;;;;;;5014732;28;20131;-74
2024/03/24 09:52:17;;;;;;;0.38;0.35;;;17.30;69.20;;;;;;5001407;28;20041;-75
2024/03/24 09:54:42;;;;;;;0.57;0.17;;;17.30;69.40;;;;;;5003462;28;20029;-74
2024/03/24 09:57:08;;;;;;;0.28;0.20;;;17.30;69.00;;;;;;5000334;28;20566;-75
2024/03/24 09:59:34;;;;;;;0.20;0.15;;;17.30;68.90;;;;;;4990519;28;20033;-74
2024/03/24 10:01:59;;;;;;;0.43;0.35;;;17.30;69.10;;;;;;5031182;28;20045;-74
2024/03/24 10:04:25;;;;;;;0.65;0.38;;;17.30;69.10;;;;;;5001544;28;20454;-75
2024/03/24 10:06:50;;;;;;;0.80;0.28;;;17.40;68.60;;;;;;5001873;28;20084;-74
2024/03/24 10:09:16;;;;;;;0.40;0.40;;;17.40;69.10;;;;;;5012109;28;20069;-74
2024/03/24 10:11:42;;;;;;;0.52;0.22;;;17.40;68.60;;;;;;4987162;28;20098;-75
2024/03/24 10:14:07;;;;;;;0.50;0.20;;;17.40;68.60;;;;;;4994318;28;20052;-75
2024/03/24 10:16:33;;;;;;;0.20;0.20;;;17.40;68.90;;;;;;5015810;28;20040;-75
2024/03/24 10:19:09;;;;;;;0.95;0.40;;;17.40;68.80;;;;;;5017099;28;20120;-75
2024/03/24 10:21:35;;;;;;;0.25;0.20;;;17.40;69.00;;;;;;5035168;28;20052;-75
2024/03/24 10:24:00;;;;;;;0.32;0.30;;;17.50;68.70;;;;;;5017859;28;20045;-76
2024/03/24 10:26:26;;;;;;;0.30;0.30;;;17.50;69.60;;;;;;5035198;28;20091;-74
2024/03/24 10:28:51;;;;;;;0.40;0.22;;;17.50;68.60;;;;;;5032833;28;20422;-74
2024/03/24 10:31:17;;;;;;;0.20;0.10;;;17.50;68.50;;;;;;5013324;28;20040;-75
2024/03/24 10:33:44;;;;;;;0.30;0.20;;;17.50;68.90;;;;;;5020196;28;20102;-74
2024/03/24 10:36:10;;;;;;;0.30;0.20;;;17.50;68.80;;;;;;5004110;28;20037;-74
2024/03/24 10:38:39;;;;;;;0.52;0.30;;;17.50;68.80;;;;;;5014630;28;20052;-74
2024/03/24 10:41:05;;;;;;;0.52;0.30;;;17.60;68.70;;;;;;5016768;28;20045;-75
2024/03/24 10:43:31;;;;;;;0.50;0.25;;;17.60;68.40;;;;;;5016259;28;20052;-75
2024/03/24 10:45:57;;;;;;;0.52;0.10;;;17.60;68.30;;;;;;5035564;28;20033;-74
2024/03/24 10:48:27;;;;;;;0.63;0.30;;;17.60;70.30;;;;;;5000302;28;20419;-75
2024/03/24 10:50:53;;;;;;;0.70;0.20;;;17.60;70.30;;;;;;5037518;28;20433;-75
2024/03/24 10:53:26;;;;;;;1.23;0.25;;;17.60;69.30;;;;;;5012869;28;20555;-74
2024/03/24 10:55:55;;;;;;;0.10;0.10;;;17.70;69.40;;;;;;5013858;28;20116;-75
2024/03/24 10:58:21;;;;;;;0.63;0.20;;;17.70;69.40;;;;;;5020775;28;20041;-74
2024/03/24 11:00:47;;;;;;;0.43;0.30;;;17.70;69.40;;;;;;5016590;28;20049;-74
2024/03/24 11:03:16;;;;;;;0.88;0.70;;;17.70;69.80;;;;;;4978972;28;20045;-73
2024/03/24 11:05:43;;;;;;;0.68;0.30;;;17.80;69.40;;;;;;5000936;28;20033;-78
2024/03/24 11:08:10;;;;;;;0.28;0.28;;;17.80;70.10;;;;;;5028445;28;20067;-77
2024/03/24 11:10:36;;;;;;;0.30;0.20;;;17.90;70.10;;;;;;5028814;28;20999;-78
2024/03/24 11:13:04;;;;;;;0.82;0.30;;;17.90;71.20;;;;;;5010771;28;20061;-78
2024/03/24 11:15:29;;;;;;;0.70;0.20;;;18.00;71.30;;;;;;5000660;28;20041;-78
2024/03/24 11:17:55;;;;;;;0.20;0.20;;;17.90;70.80;;;;;;4999041;28;20053;-77
2024/03/24 11:20:21;;;;;;;0.22;0.20;;;17.90;71.00;;;;;;5012714;28;20045;-77
2024/03/24 11:22:50;;;;;;;0.65;0.30;;;17.90;70.10;;;;;;4647414;28;9999955;-77
2024/03/24 11:25:16;;;;;;;1.02;0.75;;;17.90;70.10;;;;;;4995132;28;20049;-77
2024/03/24 11:27:42;;;;;;;0.47;0.30;;;17.90;69.80;;;;;;5010775;28;20049;-77
2024/03/24 11:30:11;;;;;;;0.40;0.30;;;17.90;70.50;;;;;;5011029;28;20045;-77
2024/03/24 11:32:55;;;;;;;0.40;0.40;;;17.90;69.90;;;;;;5031239;28;20649;-77
2024/03/24 11:35:25;;;;;;;1.27;0.30;;;17.90;69.90;;;;;;5029745;28;20033;-78
2024/03/24 11:37:51;;;;;;;4.03;0.40;;;17.90;69.90;;;;;;4989326;28;20106;-77
2024/03/24 11:40:18;;;;;;;2.05;0.40;;;17.90;69.80;;;;;;5027352;28;20033;-77
2024/03/24 11:42:44;;;;;;;0.20;0.20;;;17.90;69.50;;;;;;4995582;28;20044;-77
2024/03/24 11:45:29;;;;;;;0.43;0.43;;;17.90;69.20;;;;;;5006986;28;20469;-77
2024/03/24 11:48:16;;;;;;;0.57;0.50;;;17.90;69.60;;;;;;5011468;28;20076;-77
2024/03/24 11:50:42;;;;;;;0.52;0.30;;;18.00;69.40;;;;;;5029962;28;20068;-78
2024/03/24 11:53:08;;;;;;;0.57;0.28;;;18.00;69.60;;;;;;4993776;28;20041;-77
2024/03/24 11:55:34;;;;;;;0.30;0.30;;;18.00;69.30;;;;;;5015356;28;20084;-78
2024/03/24 11:58:00;;;;;;;0.28;0.28;;;18.00;69.20;;;;;;5016213;28;20037;-78
2024/03/24 12:00:28;;;;;;;1.35;0.43;;;18.00;69.30;;;;;;5010325;28;20041;-77
2024/03/24 12:02:54;;;;;;;1.85;0.35;;;18.00;69.20;;;;;;5000842;28;20121;-78
2024/03/24 12:05:19;;;;;;;0.40;0.30;;;18.00;69.20;;;;;;5002334;28;20120;-77
2024/03/24 12:07:45;;;;;;;0.35;0.30;;;18.00;69.40;;;;;;5018184;28;20052;-78
2024/03/24 12:10:10;;;;;;;0.50;0.32;;;17.90;69.10;;;;;;4999345;28;20046;-77
2024/03/24 12:12:36;;;;;;;0.43;0.28;;;17.90;69.10;;;;;;5018741;28;20546;-77
2024/03/24 12:15:01;;;;;;;0.60;0.32;;;17.90;69.20;;;;;;5002024;28;20133;-77
2024/03/24 12:17:27;;;;;;;0.77;0.40;;;17.90;69.40;;;;;;4997182;28;20041;-78
2024/03/24 12:19:53;;;;;;;0.47;0.20;;;17.90;69.30;;;;;;5007646;28;20030;-77
2024/03/24 12:22:19;;;;;;;0.43;0.30;;;17.90;69.60;;;;;;5034552;28;20029;-78
2024/03/24 12:24:44;;;;;;;0.40;0.22;;;17.90;69.70;;;;;;5003538;28;20340;-78
2024/03/24 12:27:10;;;;;;;1.42;0.40;;;17.80;69.50;;;;;;5000867;28;20050;-79
2024/03/24 12:29:35;;;;;;;0.45;0.20;;;17.90;70.00;;;;;;4990363;28;20072;-78
2024/03/24 12:32:01;;;;;;;0.55;0.40;;;17.90;70.00;;;;;;5003168;28;20053;-78
2024/03/24 12:34:27;;;;;;;0.20;0.20;;;17.90;69.70;;;;;;4989658;28;20095;-78
2024/03/24 12:36:53;;;;;;;0.52;0.30;;;17.80;69.50;;;;;;5014637;28;20076;-78
2024/03/24 12:39:19;;;;;;;0.50;0.20;;;17.90;69.50;;;;;;5015667;28;20119;-78